Airfield :
LOGIN :

Register | Disclaimer

   EN    FR    IT 

 










Legend :    VFR   Marginal VFR   IFR   Intensive IFR   Very Intensive IFR
Visi :
Ceiling :
>= 8 km
>= 3000ft
5 to 8 km
1000 to 3000 ft
1500m to 5 km
500 to 1000 ft
800 to 1500m
200 to 500 ft
< 800m
< 200 ft
Symbols :   Thunderstorms  Fog  Heavy snow  Heavy precipitations  Wind > 20 kt
SIGMETs :     Misc.  Thunderstorms  Icing  Turbulence  Mountain Waves  Volcanic Ashes






- Airport Elevation : 1260 ft
- IATA code : LDE


LFBT - Tarbes / Ossun

CURRENT METAR :
  • 162100Z AUTO 31002KT 9999 BKN033 OVC140 18/15 Q1014 NOSIG

EXPIRED METARs :
  • 162030Z AUTO 01003KT CAVOK 19/15 Q1014 NOSIG
  • 162000Z AUTO VRB03KT CAVOK 19/15 Q1014 NOSIG
  • 161930Z AUTO 35006KT 9999 SCT052 OVC150 20/15 Q1014 NOSIG
  • 161900Z AUTO 33007KT 9999 BKN052 OVC150 21/15 Q1013 NOSIG
  • 161830Z AUTO 34007KT 9999 BKN050 OVC060 21/15 Q1013 NOSIG
  • 161800Z AUTO 35008KT 9999 BKN062 OVC150 22/15 Q1013 NOSIG
  • 161730Z AUTO 36010KT 9999 BKN056 OVC150 23/15 Q1013 NOSIG
  • 161700Z AUTO 36008KT 9999 BKN056 24/13 Q1012 NOSIG
  • 161630Z AUTO 01007KT 330V050 9999 SCT052 OVC170 24/13 Q1012 NOSIG

TAF TAF LFBT
Valid from the 16 at 18:00 until the 17 at 18:00 UTC


161700Z 1618/1718 VRB03KT CAVOK
PROB30
TEMPO 1621/1705 BKN020
TEMPO 1708/1718 08010KT



MET'MAP, your aeronautical weather chart ! - Copyright ORBIFLY December 2007 - Disclaimer

ORBIFLY MET'MAP TEAM :

Programming & Development : Alexandra Zaïnal
Original concept : Baudouin d'Aumeries
Technical & hardware support : Manuel Goepfert
Assistance : Marc-Olivier Méhu




SOURCES & CREDITS :

   NOAA